KBQK

Brunswick Golden Isles Airport

Brunswick, Georgia, USA
METAR KBQK 231055Z AUTO 00000KT 10SM CLR 20/18 A3012 RMK AO2 LTG DSNT NW
Observed Flight Rules
May-23 @ 10:55 UTC (22 minutes ago) Visual Flight Rules
Visibility Clouds
10 miles
  • Clear skies
Temperatures Readings
Current 20°C / 68°F
Dewpoint 18°C / 64°F
Humidity 88%
Altimeter 30.12" Hg
Pressure 1020 hPa
Elevation 8
METAR KBQK 231055Z AUTO 00000KT 10SM CLR 20/18 A3012 RMK AO2 LTG DSNT NW
Observed Flight Rules
May-23 @ 10:55 UTC
(22 minutes ago)
VFR
Clouds
  • Clear skies
Temperature Dewpoint
20°C / 68°F 18°C / 64°F
Humidity Altimeter Pressure
88% 30.12" Hg 1020 hPa